Time;durP1;ratioP1;P1;durP2;ratioP2;P2;SDS_P1;SDS_P2;PMS_P1;PMS_P2;Temp;Humidity;BMP_temperature;BMP_pressure;BME280_temperature;BME280_humidity;BME280_pressure;Samples;Min_cycle;Max_cycle;Signal;HPM_P1;HPM_P2
2023/08/16 00:02:02;;;;;;;2.65;2.45;;;16.00;99.90;;;;;;5052053;28;20045;-65
2023/08/16 00:04:28;;;;;;;4.10;2.50;;;16.00;99.90;;;;;;5051999;28;20441;-65
2023/08/16 00:06:54;;;;;;;6.93;2.75;;;16.00;99.90;;;;;;5052624;28;20037;-65
2023/08/16 00:09:20;;;;;;;5.18;2.35;;;16.00;99.90;;;;;;5052653;28;20037;-65
2023/08/16 00:11:46;;;;;;;3.13;2.80;;;15.90;99.90;;;;;;5051805;28;20048;-65
2023/08/16 00:14:12;;;;;;;4.32;2.95;;;15.90;99.90;;;;;;5052059;28;20052;-65
2023/08/16 00:16:38;;;;;;;3.00;2.70;;;15.80;99.90;;;;;;5052318;28;20037;-65
2023/08/16 00:19:03;;;;;;;3.95;3.10;;;15.80;99.90;;;;;;5052336;28;20037;-65
2023/08/16 00:21:29;;;;;;;4.55;2.67;;;15.80;99.90;;;;;;5051967;28;20048;-66
2023/08/16 00:23:55;;;;;;;5.68;3.03;;;15.80;99.90;;;;;;5034058;28;20407;-65
2023/08/16 00:26:21;;;;;;;4.88;3.08;;;15.80;99.90;;;;;;5052464;28;20134;-65
2023/08/16 00:28:48;;;;;;;3.97;3.33;;;15.80;99.90;;;;;;5052259;28;20688;-65
2023/08/16 00:31:14;;;;;;;4.43;3.30;;;15.80;99.90;;;;;;5052054;28;20040;-65
2023/08/16 00:33:40;;;;;;;3.92;2.80;;;15.80;99.90;;;;;;5069448;22;20044;-66
2023/08/16 00:36:07;;;;;;;3.33;2.70;;;15.80;99.90;;;;;;5071318;28;20132;-66
2023/08/16 00:38:34;;;;;;;4.22;3.15;;;15.90;99.90;;;;;;5072018;28;20060;-67
2023/08/16 00:40:59;;;;;;;3.35;2.92;;;15.90;99.90;;;;;;5072041;28;20127;-66
2023/08/16 00:43:25;;;;;;;3.88;2.80;;;15.90;99.90;;;;;;5053406;28;20124;-66
2023/08/16 00:45:51;;;;;;;4.78;2.50;;;15.80;99.90;;;;;;5071518;28;20094;-66
2023/08/16 00:48:18;;;;;;;5.00;3.03;;;15.80;99.90;;;;;;5071985;28;20036;-67
2023/08/16 00:50:47;;;;;;;3.05;2.70;;;15.80;99.90;;;;;;5071719;28;20041;-66
2023/08/16 00:53:17;;;;;;;4.57;3.60;;;15.80;99.90;;;;;;5070530;28;20033;-67
2023/08/16 00:55:43;;;;;;;3.83;2.65;;;15.60;99.90;;;;;;5071859;28;20150;-67
2023/08/16 00:58:09;;;;;;;4.63;2.72;;;15.70;99.90;;;;;;5072031;28;20071;-66
2023/08/16 01:00:34;;;;;;;4.35;3.00;;;15.60;99.90;;;;;;5071623;28;20108;-66
2023/08/16 01:03:00;;;;;;;3.13;2.63;;;15.60;99.90;;;;;;5071650;28;20041;-66
2023/08/16 01:05:26;;;;;;;3.45;3.15;;;15.60;99.90;;;;;;5071453;28;20037;-66
2023/08/16 01:07:52;;;;;;;3.10;2.45;;;15.60;99.90;;;;;;5071764;28;20478;-66
2023/08/16 01:10:23;;;;;;;3.80;2.85;;;15.50;99.90;;;;;;5071819;28;20062;-66
2023/08/16 01:13:01;;;;;;;4.30;2.60;;;15.60;99.90;;;;;;5075460;28;20115;-66
2023/08/16 01:15:36;;;;;;;3.25;2.60;;;15.60;99.90;;;;;;5075626;28;20044;-66
2023/08/16 01:18:02;;;;;;;3.67;2.30;;;15.60;99.90;;;;;;5075639;28;20047;-66
2023/08/16 01:20:29;;;;;;;3.30;2.97;;;15.50;99.90;;;;;;5075854;28;20037;-66
2023/08/16 01:23:05;;;;;;;3.08;2.85;;;15.40;99.90;;;;;;5075572;28;20048;-66
2023/08/16 01:25:45;;;;;;;3.88;3.08;;;15.40;99.90;;;;;;5075506;28;20047;-66
2023/08/16 01:28:11;;;;;;;5.23;2.97;;;15.40;99.90;;;;;;5075521;28;20581;-67
2023/08/16 01:30:40;;;;;;;4.55;3.10;;;15.40;99.90;;;;;;5075013;28;20559;-66
2023/08/16 01:33:09;;;;;;;5.20;3.92;;;15.30;99.90;;;;;;5075443;28;20052;-66
2023/08/16 01:35:36;;;;;;;6.70;3.15;;;15.30;99.90;;;;;;5075195;28;20483;-66
2023/08/16 01:38:05;;;;;;;4.43;2.47;;;15.20;99.90;;;;;;5075528;28;20162;-66
2023/08/16 01:40:37;;;;;;;3.10;2.80;;;15.10;99.90;;;;;;5075207;28;20509;-67
2023/08/16 01:43:08;;;;;;;3.20;2.33;;;15.10;99.90;;;;;;5073920;28;20052;-66
2023/08/16 01:45:34;;;;;;;2.95;2.15;;;15.10;99.90;;;;;;5075216;28;20045;-66
2023/08/16 01:48:02;;;;;;;3.78;2.83;;;15.00;99.90;;;;;;5075298;28;20036;-66
2023/08/16 01:50:27;;;;;;;3.55;2.50;;;15.00;99.90;;;;;;5073688;28;20036;-66
2023/08/16 01:52:54;;;;;;;3.05;2.33;;;15.00;99.90;;;;;;5073969;28;20041;-66
2023/08/16 01:55:19;;;;;;;3.72;2.55;;;15.10;99.90;;;;;;5074332;28;20097;-66
2023/08/16 01:57:45;;;;;;;2.83;2.42;;;15.10;99.90;;;;;;5073825;28;20040;-67
2023/08/16 02:00:12;;;;;;;2.42;2.22;;;15.10;99.90;;;;;;5072738;28;20044;-66
2023/08/16 02:02:38;;;;;;;2.00;1.80;;;15.10;99.90;;;;;;5073119;28;20071;-67
2023/08/16 02:05:04;;;;;;;2.50;2.30;;;15.00;99.90;;;;;;5053087;28;20065;-66
2023/08/16 02:07:30;;;;;;;2.95;2.40;;;15.10;99.90;;;;;;5053337;28;20037;-66
2023/08/16 02:09:55;;;;;;;3.40;2.03;;;15.10;99.90;;;;;;5053866;28;20040;-66
2023/08/16 02:12:21;;;;;;;2.17;1.88;;;15.00;99.90;;;;;;5066944;28;20037;-66
2023/08/16 02:14:47;;;;;;;3.90;2.35;;;14.90;99.90;;;;;;5074607;28;20036;-66
2023/08/16 02:17:12;;;;;;;3.00;2.70;;;14.80;99.90;;;;;;5074863;28;20028;-67
2023/08/16 02:19:38;;;;;;;4.93;2.70;;;14.80;99.90;;;;;;5074695;28;20132;-66
2023/08/16 02:22:03;;;;;;;3.17;2.40;;;14.70;99.90;;;;;;5072583;28;20099;-66
2023/08/16 02:24:29;;;;;;;2.45;2.25;;;14.60;99.90;;;;;;5073314;28;20037;-67
2023/08/16 02:26:55;;;;;;;2.80;2.50;;;14.60;99.90;;;;;;5074671;28;20036;-66
2023/08/16 02:29:20;;;;;;;3.88;2.40;;;14.50;99.90;;;;;;5073503;28;20044;-66
2023/08/16 02:31:46;;;;;;;2.58;2.38;;;14.50;99.90;;;;;;5074429;28;20036;-66
2023/08/16 02:34:12;;;;;;;4.00;2.63;;;14.40;99.90;;;;;;5073559;28;20048;-66
2023/08/16 02:36:37;;;;;;;6.28;3.03;;;14.30;99.90;;;;;;5074056;28;20039;-67
2023/08/16 02:39:05;;;;;;;3.95;3.00;;;14.30;99.90;;;;;;5074226;28;20119;-67
2023/08/16 02:41:31;;;;;;;5.63;2.83;;;14.30;99.90;;;;;;5073743;28;20094;-66
2023/08/16 02:43:56;;;;;;;3.33;2.35;;;14.20;99.90;;;;;;5074005;28;20033;-66
2023/08/16 02:46:23;;;;;;;4.45;2.90;;;14.20;99.90;;;;;;5073935;28;20118;-67
2023/08/16 02:48:48;;;;;;;6.00;2.90;;;14.20;99.90;;;;;;5073159;28;20051;-66
2023/08/16 02:51:14;;;;;;;3.90;3.05;;;14.30;99.90;;;;;;5071919;28;20045;-66
2023/08/16 02:53:39;;;;;;;5.65;3.30;;;14.20;99.90;;;;;;5073586;28;20055;-66
2023/08/16 02:56:05;;;;;;;5.03;3.05;;;14.30;99.90;;;;;;5074146;28;20068;-66
2023/08/16 02:58:31;;;;;;;4.13;2.90;;;14.30;99.90;;;;;;5073588;28;20036;-67
2023/08/16 03:00:56;;;;;;;3.38;2.85;;;14.20;99.90;;;;;;5073564;28;20044;-67
2023/08/16 03:03:22;;;;;;;4.80;3.17;;;14.30;99.90;;;;;;5073592;28;20087;-67
2023/08/16 03:05:48;;;;;;;5.20;3.70;;;14.30;99.90;;;;;;5073682;28;20033;-66
2023/08/16 03:08:13;;;;;;;4.10;3.38;;;14.30;99.90;;;;;;5073636;28;20028;-67
2023/08/16 03:10:39;;;;;;;3.55;2.90;;;14.30;99.90;;;;;;5073906;28;20033;-67
2023/08/16 03:13:04;;;;;;;3.45;2.72;;;14.30;99.90;;;;;;5073515;28;20086;-67
2023/08/16 03:15:30;;;;;;;3.20;2.70;;;14.30;99.90;;;;;;5073380;28;20510;-66
2023/08/16 03:17:56;;;;;;;4.72;2.40;;;14.30;99.90;;;;;;5073696;28;20047;-66
2023/08/16 03:20:21;;;;;;;2.67;2.47;;;14.30;99.90;;;;;;5073466;28;20044;-66
2023/08/16 03:22:47;;;;;;;4.18;1.90;;;14.30;99.90;;;;;;5073081;28;20037;-66
2023/08/16 03:25:13;;;;;;;2.63;2.20;;;14.30;99.90;;;;;;5073389;28;20033;-66
2023/08/16 03:27:38;;;;;;;3.20;2.72;;;14.30;99.90;;;;;;5073343;28;20075;-66
2023/08/16 03:30:05;;;;;;;3.13;2.33;;;14.30;99.90;;;;;;5073354;28;20397;-66
2023/08/16 03:32:31;;;;;;;3.95;3.15;;;14.20;99.90;;;;;;5072783;28;20051;-66
2023/08/16 03:34:56;;;;;;;4.10;2.53;;;14.20;99.90;;;;;;5073130;28;20036;-66
2023/08/16 03:37:22;;;;;;;3.15;2.83;;;14.10;99.90;;;;;;5073083;28;20040;-66
2023/08/16 03:39:47;;;;;;;4.05;2.80;;;14.10;99.90;;;;;;5073288;28;20044;-66
2023/08/16 03:42:13;;;;;;;3.55;2.97;;;14.10;99.90;;;;;;5072685;28;20071;-66
2023/08/16 03:44:39;;;;;;;5.00;3.13;;;14.10;99.90;;;;;;5072755;28;20052;-66
2023/08/16 03:47:04;;;;;;;4.20;3.80;;;14.10;99.90;;;;;;5072798;28;20032;-65
2023/08/16 03:49:30;;;;;;;4.90;3.00;;;14.00;99.90;;;;;;5073023;28;20036;-66
2023/08/16 03:51:55;;;;;;;3.08;2.38;;;14.00;99.90;;;;;;5072464;28;20080;-66
2023/08/16 03:54:21;;;;;;;2.40;2.20;;;14.00;99.90;;;;;;5072790;28;20040;-66
2023/08/16 03:56:47;;;;;;;2.67;2.28;;;14.00;99.90;;;;;;5072876;28;20036;-65
2023/08/16 03:59:12;;;;;;;3.28;2.70;;;14.10;99.90;;;;;;5072910;28;20421;-66
2023/08/16 04:01:38;;;;;;;4.50;2.50;;;14.00;99.90;;;;;;5073440;28;20040;-66
2023/08/16 04:04:04;;;;;;;3.00;2.40;;;13.90;99.90;;;;;;5083545;28;20059;-66
2023/08/16 04:06:29;;;;;;;2.72;2.40;;;13.90;99.90;;;;;;5085177;28;20036;-66
2023/08/16 04:08:55;;;;;;;3.88;2.33;;;13.90;99.90;;;;;;5093084;28;20028;-66
2023/08/16 04:11:20;;;;;;;3.17;2.45;;;13.90;99.90;;;;;;5092815;28;20051;-66
2023/08/16 04:13:46;;;;;;;3.53;2.35;;;14.00;99.90;;;;;;5077973;28;20040;-66
2023/08/16 04:16:12;;;;;;;3.42;2.75;;;14.00;99.90;;;;;;5072378;28;20128;-66
2023/08/16 04:18:37;;;;;;;2.70;2.50;;;13.90;99.90;;;;;;5072342;28;20111;-66
2023/08/16 04:21:03;;;;;;;4.80;3.13;;;13.90;99.90;;;;;;5071627;28;20037;-66
2023/08/16 04:23:29;;;;;;;6.40;3.08;;;13.90;99.90;;;;;;5071639;28;20043;-66
2023/08/16 04:25:54;;;;;;;3.10;2.80;;;13.90;99.90;;;;;;5072296;28;20089;-66
2023/08/16 04:28:20;;;;;;;3.50;3.15;;;13.90;99.90;;;;;;5072386;28;20464;-66
2023/08/16 04:30:46;;;;;;;3.22;2.92;;;14.00;99.90;;;;;;5072284;28;20041;-66
2023/08/16 04:33:11;;;;;;;3.55;2.70;;;13.90;99.90;;;;;;5071870;28;20119;-66
2023/08/16 04:35:37;;;;;;;3.38;2.65;;;14.00;99.90;;;;;;5071986;28;20033;-66
2023/08/16 04:38:03;;;;;;;3.88;2.65;;;14.00;99.90;;;;;;5071886;28;20079;-66
2023/08/16 04:40:28;;;;;;;3.20;2.65;;;14.00;99.90;;;;;;5072193;28;20494;-66
2023/08/16 04:42:54;;;;;;;2.67;2.47;;;14.00;99.90;;;;;;5071889;28;20499;-66
2023/08/16 04:45:20;;;;;;;5.55;3.90;;;14.10;99.90;;;;;;5071504;28;20039;-66
2023/08/16 04:47:45;;;;;;;4.25;3.30;;;14.10;99.90;;;;;;5071257;28;20115;-66
2023/08/16 04:50:11;;;;;;;4.72;3.03;;;14.20;99.90;;;;;;5071980;28;20111;-66
2023/08/16 04:52:37;;;;;;;3.60;3.30;;;14.20;99.90;;;;;;5071216;28;20055;-66
2023/08/16 04:55:06;;;;;;;5.10;3.40;;;14.10;99.90;;;;;;5071343;28;20062;-66
2023/08/16 04:57:32;;;;;;;3.75;3.20;;;14.10;99.90;;;;;;5071710;28;20040;-66
2023/08/16 04:59:58;;;;;;;5.50;3.40;;;14.10;99.90;;;;;;5070872;28;20051;-66
2023/08/16 05:02:23;;;;;;;4.68;3.30;;;14.10;99.90;;;;;;5071569;28;20033;-66
2023/08/16 05:04:49;;;;;;;4.30;3.20;;;14.10;99.90;;;;;;5071572;28;20119;-65
2023/08/16 05:07:15;;;;;;;3.83;3.17;;;14.20;99.90;;;;;;5071922;28;20072;-66
2023/08/16 05:09:40;;;;;;;3.70;3.20;;;14.20;99.90;;;;;;5072020;28;20087;-66
2023/08/16 05:12:06;;;;;;;5.13;3.10;;;14.20;99.90;;;;;;5071581;28;20097;-66
2023/08/16 05:14:32;;;;;;;3.95;2.92;;;14.30;99.90;;;;;;5071595;28;20032;-66
2023/08/16 05:16:57;;;;;;;4.72;3.15;;;14.30;99.90;;;;;;5071730;28;20059;-67
2023/08/16 05:19:23;;;;;;;5.63;3.40;;;14.30;99.90;;;;;;5071599;28;20433;-66
2023/08/16 05:21:49;;;;;;;4.53;3.17;;;14.30;99.90;;;;;;5071746;28;20052;-67
2023/08/16 05:24:14;;;;;;;3.30;3.00;;;14.30;99.90;;;;;;5071431;28;20032;-66
2023/08/16 05:26:40;;;;;;;4.07;3.63;;;14.30;99.90;;;;;;5071810;28;20037;-66
2023/08/16 05:29:05;;;;;;;5.15;3.65;;;14.30;99.90;;;;;;5070491;28;20040;-66
2023/08/16 05:31:31;;;;;;;4.85;3.70;;;14.30;99.90;;;;;;5071679;28;20037;-66
2023/08/16 05:33:57;;;;;;;5.35;3.47;;;14.30;99.90;;;;;;5071027;28;20075;-66
2023/08/16 05:36:22;;;;;;;5.65;4.22;;;14.30;99.90;;;;;;5071702;28;20040;-67
2023/08/16 05:38:48;;;;;;;8.35;4.30;;;14.20;99.90;;;;;;5070951;28;20055;-66
2023/08/16 05:41:14;;;;;;;5.40;4.00;;;14.20;99.90;;;;;;5071552;28;20371;-66
2023/08/16 05:43:39;;;;;;;5.70;4.55;;;14.20;99.90;;;;;;5070697;28;20093;-66
2023/08/16 05:46:05;;;;;;;6.38;4.07;;;14.30;99.90;;;;;;5071514;28;20510;-67
2023/08/16 05:48:30;;;;;;;7.57;4.10;;;14.30;99.90;;;;;;5070992;28;20036;-66
2023/08/16 05:50:56;;;;;;;7.15;4.38;;;14.30;99.90;;;;;;5071226;28;20032;-66
2023/08/16 05:53:21;;;;;;;7.30;4.40;;;14.40;99.90;;;;;;5071120;28;20036;-66
2023/08/16 05:55:47;;;;;;;9.32;5.70;;;14.40;99.90;;;;;;5071410;28;20032;-66
2023/08/16 05:58:13;;;;;;;9.10;5.70;;;14.50;99.90;;;;;;5073814;28;20051;-67
2023/08/16 06:00:38;;;;;;;6.30;5.47;;;14.50;99.90;;;;;;5073968;28;20036;-66
2023/08/16 06:03:04;;;;;;;8.45;5.30;;;14.70;99.90;;;;;;5074641;28;20502;-66
2023/08/16 06:05:30;;;;;;;6.95;5.28;;;14.80;99.90;;;;;;5074567;28;20033;-66
2023/08/16 06:07:57;;;;;;;7.03;5.88;;;14.70;99.90;;;;;;5075009;28;20047;-67
2023/08/16 06:10:22;;;;;;;10.95;6.32;;;15.00;99.90;;;;;;5073127;28;20089;-67
2023/08/16 06:12:48;;;;;;;10.85;6.78;;;15.00;99.90;;;;;;5074287;28;20048;-67
2023/08/16 06:15:15;;;;;;;11.52;7.32;;;15.20;99.90;;;;;;5074648;28;20402;-67
2023/08/16 06:17:41;;;;;;;7.90;6.65;;;15.40;99.90;;;;;;5073731;28;20047;-67
2023/08/16 06:20:09;;;;;;;9.05;6.90;;;15.50;99.90;;;;;;5074530;28;20482;-67
2023/08/16 06:22:37;;;;;;;9.00;6.22;;;15.60;99.90;;;;;;5074232;28;20048;-66
2023/08/16 06:25:04;;;;;;;9.93;6.90;;;15.80;99.90;;;;;;5072997;28;20068;-66
2023/08/16 06:27:30;;;;;;;8.23;6.68;;;15.90;99.90;;;;;;5072873;28;20049;-66
2023/08/16 06:29:55;;;;;;;9.88;7.35;;;16.00;99.90;;;;;;5073080;28;20033;-66
2023/08/16 06:34:49;;;;;;;10.30;6.70;;;16.10;99.90;;;;;;5029328;28;20049;-66
2023/08/16 06:37:14;;;;;;;10.43;6.70;;;16.10;99.90;;;;;;5034282;28;20033;-66
2023/08/16 06:39:41;;;;;;;13.55;7.95;;;16.10;99.90;;;;;;5016437;28;20038;-66
2023/08/16 06:42:07;;;;;;;14.25;8.35;;;16.20;99.90;;;;;;5034252;28;20511;-66
2023/08/16 06:44:32;;;;;;;12.38;7.78;;;16.20;99.90;;;;;;5032534;28;20116;-66
2023/08/16 06:46:58;;;;;;;12.57;7.85;;;16.30;99.90;;;;;;5034106;28;20034;-66
2023/08/16 06:49:24;;;;;;;12.88;8.38;;;16.40;99.90;;;;;;5034321;28;20479;-66
2023/08/16 06:51:50;;;;;;;13.82;9.00;;;16.50;99.90;;;;;;5016160;28;20073;-66
2023/08/16 06:54:16;;;;;;;15.18;8.90;;;16.70;99.90;;;;;;5016149;28;20459;-66
2023/08/16 06:56:41;;;;;;;15.52;8.95;;;16.80;99.90;;;;;;5034197;28;20522;-66
2023/08/16 06:59:08;;;;;;;16.92;8.70;;;16.90;99.90;;;;;;5033610;28;20152;-66
2023/08/16 07:01:33;;;;;;;13.32;7.97;;;17.00;99.90;;;;;;5015973;28;20073;-67
2023/08/16 07:03:59;;;;;;;15.68;8.38;;;17.00;99.90;;;;;;5033358;28;20075;-66
2023/08/16 07:06:26;;;;;;;18.33;9.50;;;17.20;99.90;;;;;;5034002;28;20033;-66
2023/08/16 07:08:52;;;;;;;11.85;8.20;;;17.40;99.90;;;;;;5014500;28;20077;-67
2023/08/16 07:11:18;;;;;;;12.10;8.23;;;17.60;99.90;;;;;;5033753;28;20120;-66
2023/08/16 07:13:43;;;;;;;12.60;8.13;;;17.70;99.90;;;;;;5032867;28;20470;-66
2023/08/16 07:16:09;;;;;;;13.63;7.93;;;17.80;99.90;;;;;;5033583;28;20060;-66
2023/08/16 07:18:35;;;;;;;9.65;6.30;;;17.80;99.90;;;;;;5033876;28;20036;-67
2023/08/16 07:21:00;;;;;;;8.02;6.20;;;17.80;99.90;;;;;;5033699;28;20446;-66
2023/08/16 07:23:26;;;;;;;11.45;5.70;;;17.90;99.90;;;;;;5033265;28;20038;-66
2023/08/16 07:25:56;;;;;;;9.38;5.90;;;18.00;99.90;;;;;;5015590;28;20076;-66
2023/08/16 07:28:26;;;;;;;10.25;4.75;;;18.20;99.90;;;;;;5015944;28;20087;-66
2023/08/16 07:30:53;;;;;;;7.07;5.30;;;18.30;99.90;;;;;;5033265;28;20399;-67
2023/08/16 07:33:19;;;;;;;8.73;4.90;;;18.50;99.90;;;;;;5040926;28;20051;-66
2023/08/16 07:35:45;;;;;;;12.00;5.32;;;18.70;99.90;;;;;;5053125;28;20040;-67
2023/08/16 07:38:11;;;;;;;7.43;4.85;;;18.80;99.90;;;;;;5053159;28;20090;-67
2023/08/16 07:40:37;;;;;;;8.43;4.97;;;18.90;99.90;;;;;;5053159;28;20107;-67
2023/08/16 07:43:03;;;;;;;12.57;5.35;;;19.10;99.90;;;;;;5034998;28;20524;-67
2023/08/16 07:45:28;;;;;;;8.50;6.03;;;19.30;99.90;;;;;;5052574;28;20029;-66
2023/08/16 07:47:54;;;;;;;7.65;5.15;;;19.40;99.90;;;;;;5035397;28;20047;-66
2023/08/16 07:50:19;;;;;;;7.10;3.97;;;19.60;99.90;;;;;;5053034;28;20139;-66
2023/08/16 07:52:45;;;;;;;8.15;3.95;;;19.60;99.90;;;;;;5035094;28;20139;-66
2023/08/16 07:55:11;;;;;;;9.50;4.13;;;19.70;99.90;;;;;;5034931;28;20561;-66
2023/08/16 07:57:37;;;;;;;6.35;3.70;;;19.90;99.90;;;;;;5052702;28;20083;-67
2023/08/16 08:00:04;;;;;;;4.82;3.10;;;20.00;99.90;;;;;;5052551;28;20043;-66
2023/08/16 08:02:31;;;;;;;7.30;3.85;;;20.10;99.90;;;;;;5052818;28;20056;-67
2023/08/16 08:05:01;;;;;;;6.93;3.55;;;20.20;99.90;;;;;;5052345;28;20037;-66
2023/08/16 08:07:28;;;;;;;7.95;3.90;;;20.30;99.90;;;;;;5052327;28;20037;-66
2023/08/16 08:09:57;;;;;;;7.20;3.72;;;20.40;99.90;;;;;;5034262;28;20498;-66
2023/08/16 08:12:23;;;;;;;5.70;3.50;;;20.50;99.90;;;;;;5052235;28;20037;-67
2023/08/16 08:14:49;;;;;;;7.05;3.38;;;20.50;99.90;;;;;;5033999;28;20084;-67
2023/08/16 08:17:15;;;;;;;7.07;3.55;;;20.50;99.90;;;;;;5052574;28;20045;-67
2023/08/16 08:19:41;;;;;;;7.40;2.88;;;20.60;99.90;;;;;;5051898;28;20041;-66
2023/08/16 08:22:07;;;;;;;6.25;3.45;;;20.70;99.90;;;;;;5052058;28;20052;-67
2023/08/16 08:24:33;;;;;;;6.05;3.47;;;20.90;99.90;;;;;;5051552;28;20043;-67
2023/08/16 08:26:59;;;;;;;11.30;4.07;;;21.00;99.90;;;;;;5034354;28;20124;-64
2023/08/16 08:29:25;;;;;;;7.45;4.03;;;21.10;99.90;;;;;;5052427;28;20087;-64
2023/08/16 08:31:53;;;;;;;7.95;3.88;;;21.20;99.90;;;;;;5051469;28;20037;-65
2023/08/16 08:34:18;;;;;;;4.80;3.30;;;21.20;99.90;;;;;;5079459;28;20045;-65
2023/08/16 08:36:44;;;;;;;5.15;4.20;;;21.30;99.90;;;;;;5052267;28;20043;-66
2023/08/16 08:39:10;;;;;;;7.53;4.63;;;21.40;99.90;;;;;;5050806;28;20051;-65
2023/08/16 08:41:40;;;;;;;8.48;3.80;;;21.50;99.90;;;;;;5051408;28;20407;-65
2023/08/16 08:44:06;;;;;;;6.40;4.57;;;21.60;99.90;;;;;;5051730;28;20110;-65
2023/08/16 08:46:32;;;;;;;8.60;5.28;;;21.70;99.90;;;;;;5084175;28;20069;-66
2023/08/16 08:49:00;;;;;;;5.97;4.35;;;21.90;99.90;;;;;;5051894;28;20033;-65
2023/08/16 08:51:30;;;;;;;6.70;4.50;;;22.00;99.90;;;;;;5084226;28;20052;-66
2023/08/16 08:53:56;;;;;;;8.63;4.18;;;22.00;99.90;;;;;;5084116;28;20446;-66
2023/08/16 08:56:23;;;;;;;8.25;4.68;;;22.00;99.90;;;;;;5051764;28;20048;-66
2023/08/16 08:58:50;;;;;;;8.20;4.32;;;22.10;99.90;;;;;;5084421;28;20041;-65
2023/08/16 09:01:17;;;;;;;8.07;4.82;;;22.10;99.90;;;;;;5051784;28;20041;-66
2023/08/16 09:03:45;;;;;;;6.95;4.43;;;22.00;99.90;;;;;;5083997;28;20390;-66
2023/08/16 09:06:11;;;;;;;8.05;4.05;;;21.90;99.90;;;;;;5051158;28;20033;-66
2023/08/16 09:08:37;;;;;;;6.38;4.13;;;21.80;99.90;;;;;;5050385;28;20041;-66
2023/08/16 09:11:03;;;;;;;9.43;4.03;;;21.70;99.90;;;;;;5051659;28;20047;-65
2023/08/16 09:13:31;;;;;;;7.65;4.30;;;21.70;99.90;;;;;;5051592;28;20048;-66
2023/08/16 09:15:56;;;;;;;6.28;4.15;;;21.90;99.90;;;;;;5050831;28;20418;-65
2023/08/16 09:18:22;;;;;;;6.30;4.00;;;21.90;99.90;;;;;;5084033;28;20045;-66
2023/08/16 09:20:49;;;;;;;9.60;4.55;;;22.00;99.90;;;;;;5051154;28;20033;-65
2023/08/16 09:23:17;;;;;;;6.63;4.38;;;22.00;99.90;;;;;;5051272;28;20041;-66
2023/08/16 09:25:44;;;;;;;7.47;3.95;;;22.10;99.90;;;;;;5051198;28;20441;-66
2023/08/16 09:28:14;;;;;;;6.43;3.80;;;22.30;99.90;;;;;;5084113;28;20052;-66
2023/08/16 09:30:41;;;;;;;5.60;4.07;;;22.40;99.90;;;;;;5051199;28;20502;-66
2023/08/16 09:33:07;;;;;;;6.60;4.13;;;22.50;99.90;;;;;;5053718;28;20120;-66
2023/08/16 09:35:34;;;;;;;7.28;3.85;;;22.40;99.90;;;;;;5054852;28;20045;-65
2023/08/16 09:38:00;;;;;;;9.13;4.05;;;22.40;99.90;;;;;;5054950;28;20512;-66
2023/08/16 09:40:26;;;;;;;7.97;4.38;;;22.40;99.90;;;;;;5037186;28;20052;-66
2023/08/16 09:43:01;;;;;;;7.05;4.00;;;22.60;99.90;;;;;;5055340;28;20065;-65
2023/08/16 09:45:31;;;;;;;5.85;3.83;;;22.60;99.90;;;;;;5055055;28;20041;-66
2023/08/16 09:47:59;;;;;;;8.18;3.83;;;22.70;99.90;;;;;;5055247;28;20036;-65
2023/08/16 09:50:25;;;;;;;4.63;2.53;;;22.60;99.90;;;;;;5037249;28;20045;-66
2023/08/16 09:52:52;;;;;;;7.60;3.60;;;22.50;99.90;;;;;;5070440;28;20047;-66
2023/08/16 09:55:29;;;;;;;7.55;4.07;;;22.40;99.90;;;;;;5054758;28;20075;-66
2023/08/16 09:57:59;;;;;;;7.32;3.60;;;22.40;99.90;;;;;;5037149;28;20047;-65
2023/08/16 10:00:29;;;;;;;5.13;3.85;;;22.60;99.90;;;;;;5070431;28;20119;-66
2023/08/16 10:02:56;;;;;;;4.07;2.42;;;22.70;99.90;;;;;;5036764;28;20514;-66
2023/08/16 10:05:24;;;;;;;4.25;2.97;;;22.70;99.90;;;;;;5037033;28;20360;-66
2023/08/16 10:07:51;;;;;;;5.82;3.35;;;22.50;99.90;;;;;;5055071;28;20037;-66
2023/08/16 10:10:17;;;;;;;5.13;3.47;;;22.50;99.90;;;;;;5054980;28;20049;-66
2023/08/16 10:12:45;;;;;;;5.15;2.25;;;22.50;99.90;;;;;;5054601;28;20052;-66
2023/08/16 10:15:11;;;;;;;4.38;2.42;;;22.40;99.90;;;;;;5054367;28;20045;-66
2023/08/16 10:17:42;;;;;;;4.45;3.13;;;22.40;99.90;;;;;;5036944;28;20045;-66
2023/08/16 10:20:21;;;;;;;6.05;2.70;;;22.40;99.90;;;;;;5070111;28;20128;-66
2023/08/16 10:22:51;;;;;;;4.78;2.45;;;22.30;99.90;;;;;;5036647;28;20037;-66
2023/08/16 10:25:23;;;;;;;6.32;2.40;;;22.10;99.90;;;;;;5036415;28;20048;-66
2023/08/16 10:27:50;;;;;;;3.92;2.47;;;22.00;99.90;;;;;;5054315;28;20486;-66
2023/08/16 10:30:21;;;;;;;5.53;2.65;;;21.90;99.90;;;;;;5069914;28;20041;-66
2023/08/16 10:32:51;;;;;;;3.53;2.10;;;22.00;99.90;;;;;;5036394;28;20044;-66
2023/08/16 10:35:18;;;;;;;4.68;2.40;;;22.10;99.90;;;;;;5054050;28;20491;-66
2023/08/16 10:37:46;;;;;;;3.72;2.40;;;22.30;99.90;;;;;;5054351;28;20715;-66
2023/08/16 10:40:19;;;;;;;5.82;3.05;;;22.50;99.90;;;;;;5054297;28;20138;-66
2023/08/16 10:42:54;;;;;;;3.67;2.08;;;22.70;99.90;;;;;;5054283;28;20166;-66
2023/08/16 10:45:28;;;;;;;3.38;2.22;;;22.70;99.90;;;;;;5052605;28;20048;-66
2023/08/16 10:47:54;;;;;;;4.78;2.65;;;22.80;99.90;;;;;;5054277;28;20048;-66
2023/08/16 10:50:30;;;;;;;5.07;1.80;;;22.80;99.90;;;;;;5054162;28;20033;-66
2023/08/16 10:53:00;;;;;;;3.22;1.90;;;22.80;99.90;;;;;;5053833;28;20044;-66
2023/08/16 10:55:26;;;;;;;4.72;2.10;;;22.70;99.90;;;;;;5054047;28;20407;-66
2023/08/16 10:57:53;;;;;;;2.80;1.58;;;22.70;99.90;;;;;;5054131;28;20044;-66
2023/08/16 11:00:19;;;;;;;3.92;1.75;;;22.70;99.90;;;;;;5035610;28;20052;-66
2023/08/16 11:02:48;;;;;;;4.35;1.85;;;22.60;99.90;;;;;;5035196;28;20056;-66
2023/08/16 11:05:18;;;;;;;3.37;2.17;;;22.70;99.90;;;;;;5053378;28;20044;-66
2023/08/16 11:07:44;;;;;;;6.88;2.20;;;22.60;99.90;;;;;;5068827;28;20067;-66
2023/08/16 11:10:10;;;;;;;6.05;2.60;;;22.60;99.90;;;;;;5053302;28;20514;-66
2023/08/16 11:12:35;;;;;;;3.60;1.83;;;22.60;99.90;;;;;;5053598;28;20041;-66
2023/08/16 11:15:02;;;;;;;3.17;1.35;;;22.70;99.90;;;;;;5053217;28;20486;-66
2023/08/16 11:17:29;;;;;;;2.58;1.40;;;22.70;99.90;;;;;;5052789;28;20056;-66
2023/08/16 11:19:55;;;;;;;3.00;1.40;;;22.80;99.90;;;;;;5053392;28;20052;-66
2023/08/16 11:22:21;;;;;;;4.00;1.90;;;23.00;99.90;;;;;;5053258;28;20080;-66
2023/08/16 11:24:47;;;;;;;3.63;2.00;;;23.00;99.90;;;;;;5053422;28;20429;-66
2023/08/16 11:27:22;;;;;;;2.92;1.50;;;23.00;99.90;;;;;;5053319;28;20574;-66
2023/08/16 11:29:54;;;;;;;2.50;1.70;;;23.00;99.90;;;;;;5053437;28;20049;-66
2023/08/16 11:32:36;;;;;;;3.15;1.60;;;22.90;99.90;;;;;;5053193;28;20095;-66
2023/08/16 11:35:09;;;;;;;4.55;2.38;;;22.80;99.90;;;;;;5033069;28;20479;-66
2023/08/16 11:37:35;;;;;;;4.63;1.80;;;22.80;99.90;;;;;;5032007;28;20057;-66
2023/08/16 11:40:04;;;;;;;5.97;2.08;;;22.90;99.90;;;;;;5015752;28;20037;-66
2023/08/16 11:42:31;;;;;;;4.47;1.70;;;23.00;99.90;;;;;;5015387;28;20053;-66
2023/08/16 11:44:56;;;;;;;3.50;1.92;;;23.20;99.90;;;;;;5032598;28;20068;-66
2023/08/16 11:47:23;;;;;;;4.28;1.70;;;23.20;99.90;;;;;;5048399;28;20395;-66
2023/08/16 11:49:49;;;;;;;2.40;1.70;;;23.40;99.90;;;;;;5015590;28;20634;-66
2023/08/16 11:52:23;;;;;;;2.90;1.42;;;23.50;99.90;;;;;;5014171;28;20491;-66
2023/08/16 11:55:00;;;;;;;3.30;1.60;;;23.60;99.90;;;;;;5032493;28;20128;-66
2023/08/16 11:57:26;;;;;;;4.15;1.85;;;23.60;99.90;;;;;;5032271;28;20136;-66
2023/08/16 11:59:55;;;;;;;3.40;1.85;;;23.60;99.90;;;;;;5015124;28;20075;-66
2023/08/16 12:02:24;;;;;;;4.68;1.92;;;23.70;99.90;;;;;;5032805;28;20175;-66
2023/08/16 12:04:51;;;;;;;2.45;1.70;;;23.90;99.90;;;;;;5014845;28;20487;-66
2023/08/16 12:07:17;;;;;;;5.72;1.63;;;24.00;99.90;;;;;;5032547;28;20112;-67
2023/08/16 12:09:43;;;;;;;2.58;1.50;;;23.90;99.90;;;;;;5033144;28;20579;-66
2023/08/16 12:12:10;;;;;;;3.97;1.50;;;23.90;99.90;;;;;;5032394;28;20498;-66
2023/08/16 12:14:36;;;;;;;2.03;1.38;;;23.90;99.90;;;;;;5032490;28;20064;-66
2023/08/16 12:17:02;;;;;;;1.77;1.10;;;23.80;99.90;;;;;;5031828;28;20045;-66
2023/08/16 12:19:28;;;;;;;2.03;1.20;;;23.60;99.90;;;;;;5032616;28;20048;-66
2023/08/16 12:21:53;;;;;;;2.47;1.23;;;23.70;99.90;;;;;;5047618;28;20045;-66
2023/08/16 12:24:19;;;;;;;2.97;1.33;;;23.70;99.90;;;;;;5031342;28;20033;-66
2023/08/16 12:26:45;;;;;;;1.88;1.08;;;23.70;99.90;;;;;;5031839;28;20045;-66
2023/08/16 12:29:11;;;;;;;3.67;1.40;;;23.60;99.90;;;;;;5032531;28;20073;-66
2023/08/16 12:31:37;;;;;;;1.63;0.95;;;23.60;99.90;;;;;;5032178;28;20080;-66
2023/08/16 12:34:06;;;;;;;4.40;1.42;;;23.60;99.90;;;;;;5054527;22;20037;-65
2023/08/16 12:36:32;;;;;;;2.85;1.50;;;23.60;99.90;;;;;;5043275;28;20041;-66
2023/08/16 12:38:57;;;;;;;2.80;1.45;;;23.70;99.90;;;;;;5032120;28;20034;-67
2023/08/16 12:41:23;;;;;;;1.77;1.10;;;23.80;99.90;;;;;;5030136;28;20037;-66
2023/08/16 12:43:49;;;;;;;2.58;1.10;;;23.90;99.90;;;;;;5031862;28;20403;-66
2023/08/16 12:46:15;;;;;;;3.03;1.27;;;24.00;99.90;;;;;;5032067;28;20073;-66